sensor_id;sensor_type;location;lat;lon;timestamp;P1;P2;P0
54869;PMS5003;40756;-37.950;145.008;2022-10-31T00:01:40;2;1;
54869;PMS5003;40756;-37.950;145.008;2022-10-31T00:04:09;2;1;
54869;PMS5003;40756;-37.950;145.008;2022-10-31T00:06:39;2;1;
54869;PMS5003;40756;-37.950;145.008;2022-10-31T00:09:09;1;1;
54869;PMS5003;40756;-37.950;145.008;2022-10-31T00:11:40;2;2;
54869;PMS5003;40756;-37.950;145.008;2022-10-31T00:14:10;1;1;
54869;PMS5003;40756;-37.950;145.008;2022-10-31T00:16:39;0;0;
54869;PMS5003;40756;-37.950;145.008;2022-10-31T00:19:09;1;1;
54869;PMS5003;40756;-37.950;145.008;2022-10-31T00:21:38;2;2;
54869;PMS5003;40756;-37.950;145.008;2022-10-31T00:24:08;3;2;
54869;PMS5003;40756;-37.950;145.008;2022-10-31T00:26:38;1;1;
54869;PMS5003;40756;-37.950;145.008;2022-10-31T00:29:07;2;2;
54869;PMS5003;40756;-37.950;145.008;2022-10-31T00:31:38;2;2;
54869;PMS5003;40756;-37.950;145.008;2022-10-31T00:34:07;1;1;
54869;PMS5003;40756;-37.950;145.008;2022-10-31T00:36:37;1;0;
54869;PMS5003;40756;-37.950;145.008;2022-10-31T00:39:06;0;0;
54869;PMS5003;40756;-37.950;145.008;2022-10-31T00:41:36;2;1;
54869;PMS5003;40756;-37.950;145.008;2022-10-31T00:44:05;0;0;
54869;PMS5003;40756;-37.950;145.008;2022-10-31T00:46:35;1;1;
54869;PMS5003;40756;-37.950;145.008;2022-10-31T00:49:04;0;0;
54869;PMS5003;40756;-37.950;145.008;2022-10-31T00:51:34;0;0;
54869;PMS5003;40756;-37.950;145.008;2022-10-31T00:54:03;0;0;
54869;PMS5003;40756;-37.950;145.008;2022-10-31T00:56:32;0;0;
54869;PMS5003;40756;-37.950;145.008;2022-10-31T00:59:02;0;0;
54869;PMS5003;40756;-37.950;145.008;2022-10-31T01:01:31;0;0;
54869;PMS5003;40756;-37.950;145.008;2022-10-31T01:04:01;0;0;
54869;PMS5003;40756;-37.950;145.008;2022-10-31T01:06:30;0;0;
54869;PMS5003;40756;-37.950;145.008;2022-10-31T01:09:00;0;0;
54869;PMS5003;40756;-37.950;145.008;2022-10-31T01:11:29;5;1;
54869;PMS5003;40756;-37.950;145.008;2022-10-31T01:13:59;0;0;
54869;PMS5003;40756;-37.950;145.008;2022-10-31T01:16:30;2;1;
54869;PMS5003;40756;-37.950;145.008;2022-10-31T01:19:00;1;0;
54869;PMS5003;40756;-37.950;145.008;2022-10-31T01:21:29;1;1;
54869;PMS5003;40756;-37.950;145.008;2022-10-31T01:23:59;0;0;
54869;PMS5003;40756;-37.950;145.008;2022-10-31T01:26:28;0;0;
54869;PMS5003;40756;-37.950;145.008;2022-10-31T01:29:01;0;0;
54869;PMS5003;40756;-37.950;145.008;2022-10-31T01:31:33;0;0;
54869;PMS5003;40756;-37.950;145.008;2022-10-31T01:34:04;0;0;
54869;PMS5003;40756;-37.950;145.008;2022-10-31T01:36:34;3;2;
54869;PMS5003;40756;-37.950;145.008;2022-10-31T01:39:05;2;2;
54869;PMS5003;40756;-37.950;145.008;2022-10-31T01:41:37;0;0;
54869;PMS5003;40756;-37.950;145.008;2022-10-31T01:44:48;2;1;
54869;PMS5003;40756;-37.950;145.008;2022-10-31T01:47:24;1;1;
54869;PMS5003;40756;-37.950;145.008;2022-10-31T01:50:02;0;0;
54869;PMS5003;40756;-37.950;145.008;2022-10-31T01:52:40;0;0;
54869;PMS5003;40756;-37.950;145.008;2022-10-31T01:55:13;1;1;
54869;PMS5003;40756;-37.950;145.008;2022-10-31T01:57:48;0;0;
54869;PMS5003;40756;-37.950;145.008;2022-10-31T02:00:23;2;1;
54869;PMS5003;40756;-37.950;145.008;2022-10-31T02:02:52;1;1;
54869;PMS5003;40756;-37.950;145.008;2022-10-31T02:05:22;0;0;
54869;PMS5003;40756;-37.950;145.008;2022-10-31T02:07:57;3;2;
54869;PMS5003;40756;-37.950;145.008;2022-10-31T02:10:31;1;1;
54869;PMS5003;40756;-37.950;145.008;2022-10-31T02:13:04;1;1;
54869;PMS5003;40756;-37.950;145.008;2022-10-31T02:15:35;1;1;
54869;PMS5003;40756;-37.950;145.008;2022-10-31T02:18:06;0;0;
54869;PMS5003;40756;-37.950;145.008;2022-10-31T02:20:39;3;0;
54869;PMS5003;40756;-37.950;145.008;2022-10-31T02:23:30;0;0;
54869;PMS5003;40756;-37.950;145.008;2022-10-31T02:27:19;0;0;
54869;PMS5003;40756;-37.950;145.008;2022-10-31T02:30:04;0;0;
54869;PMS5003;40756;-37.950;145.008;2022-10-31T02:32:39;0;0;
54869;PMS5003;40756;-37.950;145.008;2022-10-31T02:35:24;0;0;
54869;PMS5003;40756;-37.950;145.008;2022-10-31T02:38:09;0;0;
54869;PMS5003;40756;-37.950;145.008;2022-10-31T02:40:51;1;1;
54869;PMS5003;40756;-37.950;145.008;2022-10-31T02:43:29;0;0;
54869;PMS5003;40756;-37.950;145.008;2022-10-31T02:46:04;1;0;
54869;PMS5003;40756;-37.950;145.008;2022-10-31T02:48:42;1;1;
54869;PMS5003;40756;-37.950;145.008;2022-10-31T02:51:14;1;1;
54869;PMS5003;40756;-37.950;145.008;2022-10-31T02:53:45;1;1;
54869;PMS5003;40756;-37.950;145.008;2022-10-31T02:56:15;1;1;
54869;PMS5003;40756;-37.950;145.008;2022-10-31T02:58:47;0;0;
54869;PMS5003;40756;-37.950;145.008;2022-10-31T03:01:24;1;0;
54869;PMS5003;40756;-37.950;145.008;2022-10-31T03:04:15;0;0;
54869;PMS5003;40756;-37.950;145.008;2022-10-31T03:08:11;3;3;
54869;PMS5003;40756;-37.950;145.008;2022-10-31T03:10:50;0;0;
54869;PMS5003;40756;-37.950;145.008;2022-10-31T03:13:26;0;0;
54869;PMS5003;40756;-37.950;145.008;2022-10-31T03:16:06;0;0;
54869;PMS5003;40756;-37.950;145.008;2022-10-31T03:18:43;0;0;
54869;PMS5003;40756;-37.950;145.008;2022-10-31T03:21:18;0;0;
54869;PMS5003;40756;-37.950;145.008;2022-10-31T03:23:52;1;1;
54869;PMS5003;40756;-37.950;145.008;2022-10-31T03:26:24;0;0;
54869;PMS5003;40756;-37.950;145.008;2022-10-31T03:28:56;0;0;
54869;PMS5003;40756;-37.950;145.008;2022-10-31T03:31:30;0;0;
54869;PMS5003;40756;-37.950;145.008;2022-10-31T03:34:04;0;0;
54869;PMS5003;40756;-37.950;145.008;2022-10-31T03:36:37;2;1;
54869;PMS5003;40756;-37.950;145.008;2022-10-31T03:39:09;1;0;
54869;PMS5003;40756;-37.950;145.008;2022-10-31T03:41:42;0;0;
54869;PMS5003;40756;-37.950;145.008;2022-10-31T03:44:17;0;0;
54869;PMS5003;40756;-37.950;145.008;2022-10-31T03:46:50;0;0;
54869;PMS5003;40756;-37.950;145.008;2022-10-31T03:49:19;3;2;
54869;PMS5003;40756;-37.950;145.008;2022-10-31T03:51:49;2;2;
54869;PMS5003;40756;-37.950;145.008;2022-10-31T03:54:25;1;1;
54869;PMS5003;40756;-37.950;145.008;2022-10-31T03:57:03;0;0;
54869;PMS5003;40756;-37.950;145.008;2022-10-31T03:59:39;0;0;
54869;PMS5003;40756;-37.950;145.008;2022-10-31T04:02:12;2;1;
54869;PMS5003;40756;-37.950;145.008;2022-10-31T04:04:44;2;1;
54869;PMS5003;40756;-37.950;145.008;2022-10-31T04:07:16;1;1;
54869;PMS5003;40756;-37.950;145.008;2022-10-31T04:09:48;2;0;
54869;PMS5003;40756;-37.950;145.008;2022-10-31T04:12:20;2;1;
54869;PMS5003;40756;-37.950;145.008;2022-10-31T04:14:54;0;0;
54869;PMS5003;40756;-37.950;145.008;2022-10-31T04:17:27;0;0;
54869;PMS5003;40756;-37.950;145.008;2022-10-31T04:20:01;0;0;
54869;PMS5003;40756;-37.950;145.008;2022-10-31T04:22:31;1;1;
54869;PMS5003;40756;-37.950;145.008;2022-10-31T04:25:01;3;2;
54869;PMS5003;40756;-37.950;145.008;2022-10-31T04:27:31;1;1;
54869;PMS5003;40756;-37.950;145.008;2022-10-31T04:30:00;2;2;
54869;PMS5003;40756;-37.950;145.008;2022-10-31T04:32:30;0;0;
54869;PMS5003;40756;-37.950;145.008;2022-10-31T04:34:59;0;0;
54869;PMS5003;40756;-37.950;145.008;2022-10-31T04:37:29;1;1;
54869;PMS5003;40756;-37.950;145.008;2022-10-31T04:39:59;3;2;
54869;PMS5003;40756;-37.950;145.008;2022-10-31T04:42:29;2;2;
54869;PMS5003;40756;-37.950;145.008;2022-10-31T04:44:58;0;0;
54869;PMS5003;40756;-37.950;145.008;2022-10-31T04:47:27;1;0;
54869;PMS5003;40756;-37.950;145.008;2022-10-31T04:50:00;0;0;
54869;PMS5003;40756;-37.950;145.008;2022-10-31T04:52:30;1;1;
54869;PMS5003;40756;-37.950;145.008;2022-10-31T04:55:00;2;1;
54869;PMS5003;40756;-37.950;145.008;2022-10-31T04:57:29;1;1;
54869;PMS5003;40756;-37.950;145.008;2022-10-31T04:59:59;1;1;
54869;PMS5003;40756;-37.950;145.008;2022-10-31T05:02:29;2;1;
54869;PMS5003;40756;-37.950;145.008;2022-10-31T05:04:58;5;3;
54869;PMS5003;40756;-37.950;145.008;2022-10-31T05:07:28;1;1;
54869;PMS5003;40756;-37.950;145.008;2022-10-31T05:09:58;1;1;
54869;PMS5003;40756;-37.950;145.008;2022-10-31T05:12:27;0;0;
54869;PMS5003;40756;-37.950;145.008;2022-10-31T05:14:57;1;1;
54869;PMS5003;40756;-37.950;145.008;2022-10-31T05:17:26;1;1;
54869;PMS5003;40756;-37.950;145.008;2022-10-31T05:19:56;0;0;
54869;PMS5003;40756;-37.950;145.008;2022-10-31T05:22:26;1;1;
54869;PMS5003;40756;-37.950;145.008;2022-10-31T05:24:55;1;1;
54869;PMS5003;40756;-37.950;145.008;2022-10-31T05:27:25;1;0;
54869;PMS5003;40756;-37.950;145.008;2022-10-31T05:29:55;1;0;
54869;PMS5003;40756;-37.950;145.008;2022-10-31T05:32:24;1;0;
54869;PMS5003;40756;-37.950;145.008;2022-10-31T05:34:54;0;0;
54869;PMS5003;40756;-37.950;145.008;2022-10-31T05:37:24;1;0;
54869;PMS5003;40756;-37.950;145.008;2022-10-31T05:39:54;0;0;
54869;PMS5003;40756;-37.950;145.008;2022-10-31T05:42:23;0;0;
54869;PMS5003;40756;-37.950;145.008;2022-10-31T05:44:53;0;0;
54869;PMS5003;40756;-37.950;145.008;2022-10-31T05:47:23;0;0;
54869;PMS5003;40756;-37.950;145.008;2022-10-31T05:49:52;1;0;
54869;PMS5003;40756;-37.950;145.008;2022-10-31T05:52:22;0;0;
54869;PMS5003;40756;-37.950;145.008;2022-10-31T05:54:52;0;0;
54869;PMS5003;40756;-37.950;145.008;2022-10-31T05:57:21;1;1;
54869;PMS5003;40756;-37.950;145.008;2022-10-31T05:59:51;1;0;
54869;PMS5003;40756;-37.950;145.008;2022-10-31T06:02:21;1;1;
54869;PMS5003;40756;-37.950;145.008;2022-10-31T06:04:51;1;1;
54869;PMS5003;40756;-37.950;145.008;2022-10-31T06:07:21;5;3;
54869;PMS5003;40756;-37.950;145.008;2022-10-31T06:09:50;0;0;
54869;PMS5003;40756;-37.950;145.008;2022-10-31T06:12:20;0;0;
54869;PMS5003;40756;-37.950;145.008;2022-10-31T06:14:50;1;1;
54869;PMS5003;40756;-37.950;145.008;2022-10-31T06:17:19;1;1;
54869;PMS5003;40756;-37.950;145.008;2022-10-31T06:19:49;1;0;
54869;PMS5003;40756;-37.950;145.008;2022-10-31T06:22:19;2;2;
54869;PMS5003;40756;-37.950;145.008;2022-10-31T06:24:49;0;0;
54869;PMS5003;40756;-37.950;145.008;2022-10-31T06:27:19;0;0;
54869;PMS5003;40756;-37.950;145.008;2022-10-31T06:29:49;1;1;
54869;PMS5003;40756;-37.950;145.008;2022-10-31T06:32:19;0;0;
54869;PMS5003;40756;-37.950;145.008;2022-10-31T06:34:48;0;0;
54869;PMS5003;40756;-37.950;145.008;2022-10-31T06:37:18;1;1;
54869;PMS5003;40756;-37.950;145.008;2022-10-31T06:39:47;6;6;
54869;PMS5003;40756;-37.950;145.008;2022-10-31T06:42:17;0;0;
54869;PMS5003;40756;-37.950;145.008;2022-10-31T06:44:47;0;0;
54869;PMS5003;40756;-37.950;145.008;2022-10-31T06:47:17;1;1;
54869;PMS5003;40756;-37.950;145.008;2022-10-31T06:49:46;1;1;
54869;PMS5003;40756;-37.950;145.008;2022-10-31T06:52:16;1;1;
54869;PMS5003;40756;-37.950;145.008;2022-10-31T06:54:46;0;0;
54869;PMS5003;40756;-37.950;145.008;2022-10-31T06:57:16;0;0;
54869;PMS5003;40756;-37.950;145.008;2022-10-31T06:59:45;1;1;
54869;PMS5003;40756;-37.950;145.008;2022-10-31T07:02:15;1;1;
54869;PMS5003;40756;-37.950;145.008;2022-10-31T07:04:45;1;1;
54869;PMS5003;40756;-37.950;145.008;2022-10-31T07:07:14;0;0;
54869;PMS5003;40756;-37.950;145.008;2022-10-31T07:09:44;1;1;
54869;PMS5003;40756;-37.950;145.008;2022-10-31T07:12:15;1;0;
54869;PMS5003;40756;-37.950;145.008;2022-10-31T07:14:46;0;0;
54869;PMS5003;40756;-37.950;145.008;2022-10-31T07:17:16;0;0;
54869;PMS5003;40756;-37.950;145.008;2022-10-31T07:19:45;0;0;
54869;PMS5003;40756;-37.950;145.008;2022-10-31T07:22:15;0;0;
54869;PMS5003;40756;-37.950;145.008;2022-10-31T07:24:45;0;0;
54869;PMS5003;40756;-37.950;145.008;2022-10-31T07:27:15;2;1;
54869;PMS5003;40756;-37.950;145.008;2022-10-31T07:29:45;0;0;
54869;PMS5003;40756;-37.950;145.008;2022-10-31T07:32:15;1;1;
54869;PMS5003;40756;-37.950;145.008;2022-10-31T07:34:44;1;1;
54869;PMS5003;40756;-37.950;145.008;2022-10-31T07:37:14;0;0;
54869;PMS5003;40756;-37.950;145.008;2022-10-31T07:39:44;0;0;
54869;PMS5003;40756;-37.950;145.008;2022-10-31T07:42:13;0;0;
54869;PMS5003;40756;-37.950;145.008;2022-10-31T07:44:43;0;0;
54869;PMS5003;40756;-37.950;145.008;2022-10-31T07:47:13;0;0;
54869;PMS5003;40756;-37.950;145.008;2022-10-31T07:49:43;1;0;
54869;PMS5003;40756;-37.950;145.008;2022-10-31T07:52:12;1;1;
54869;PMS5003;40756;-37.950;145.008;2022-10-31T07:54:42;2;2;
54869;PMS5003;40756;-37.950;145.008;2022-10-31T07:57:12;1;1;
54869;PMS5003;40756;-37.950;145.008;2022-10-31T07:59:42;2;2;
54869;PMS5003;40756;-37.950;145.008;2022-10-31T08:02:11;0;0;
54869;PMS5003;40756;-37.950;145.008;2022-10-31T08:04:41;2;1;
54869;PMS5003;40756;-37.950;145.008;2022-10-31T08:07:10;0;0;
54869;PMS5003;40756;-37.950;145.008;2022-10-31T08:09:40;1;1;
54869;PMS5003;40756;-37.950;145.008;2022-10-31T08:12:10;1;1;
54869;PMS5003;40756;-37.950;145.008;2022-10-31T08:14:40;1;1;
54869;PMS5003;40756;-37.950;145.008;2022-10-31T08:17:09;0;0;
54869;PMS5003;40756;-37.950;145.008;2022-10-31T08:19:39;3;1;
54869;PMS5003;40756;-37.950;145.008;2022-10-31T08:22:09;1;1;
54869;PMS5003;40756;-37.950;145.008;2022-10-31T08:24:38;1;1;
54869;PMS5003;40756;-37.950;145.008;2022-10-31T08:27:08;4;3;
54869;PMS5003;40756;-37.950;145.008;2022-10-31T08:29:39;2;2;
54869;PMS5003;40756;-37.950;145.008;2022-10-31T08:32:09;3;2;
54869;PMS5003;40756;-37.950;145.008;2022-10-31T08:34:38;2;1;
54869;PMS5003;40756;-37.950;145.008;2022-10-31T08:37:08;4;3;
54869;PMS5003;40756;-37.950;145.008;2022-10-31T08:39:38;3;3;
54869;PMS5003;40756;-37.950;145.008;2022-10-31T08:42:08;5;5;
54869;PMS5003;40756;-37.950;145.008;2022-10-31T08:44:37;10;10;
54869;PMS5003;40756;-37.950;145.008;2022-10-31T08:47:07;7;6;
54869;PMS5003;40756;-37.950;145.008;2022-10-31T08:49:37;8;8;
54869;PMS5003;40756;-37.950;145.008;2022-10-31T08:52:07;7;7;
54869;PMS5003;40756;-37.950;145.008;2022-10-31T08:54:37;7;7;
54869;PMS5003;40756;-37.950;145.008;2022-10-31T08:57:06;7;7;
54869;PMS5003;40756;-37.950;145.008;2022-10-31T08:59:36;6;6;
54869;PMS5003;40756;-37.950;145.008;2022-10-31T09:02:07;2;2;
54869;PMS5003;40756;-37.950;145.008;2022-10-31T09:04:36;2;2;
54869;PMS5003;40756;-37.950;145.008;2022-10-31T09:07:06;1;1;
54869;PMS5003;40756;-37.950;145.008;2022-10-31T09:09:36;1;1;
54869;PMS5003;40756;-37.950;145.008;2022-10-31T09:12:05;1;0;
54869;PMS5003;40756;-37.950;145.008;2022-10-31T09:14:35;1;1;
54869;PMS5003;40756;-37.950;145.008;2022-10-31T09:17:05;0;0;
54869;PMS5003;40756;-37.950;145.008;2022-10-31T09:19:34;1;1;
54869;PMS5003;40756;-37.950;145.008;2022-10-31T09:22:04;0;0;
54869;PMS5003;40756;-37.950;145.008;2022-10-31T09:24:34;1;1;
54869;PMS5003;40756;-37.950;145.008;2022-10-31T09:27:04;2;2;
54869;PMS5003;40756;-37.950;145.008;2022-10-31T09:29:33;1;0;
54869;PMS5003;40756;-37.950;145.008;2022-10-31T09:32:04;0;0;
54869;PMS5003;40756;-37.950;145.008;2022-10-31T09:34:34;0;0;
54869;PMS5003;40756;-37.950;145.008;2022-10-31T09:37:03;0;0;
54869;PMS5003;40756;-37.950;145.008;2022-10-31T09:39:33;2;2;
54869;PMS5003;40756;-37.950;145.008;2022-10-31T09:42:06;0;0;
54869;PMS5003;40756;-37.950;145.008;2022-10-31T09:44:51;0;0;
54869;PMS5003;40756;-37.950;145.008;2022-10-31T09:47:33;1;1;
54869;PMS5003;40756;-37.950;145.008;2022-10-31T09:50:17;0;0;
54869;PMS5003;40756;-37.950;145.008;2022-10-31T09:52:51;1;1;
54869;PMS5003;40756;-37.950;145.008;2022-10-31T09:55:31;1;1;
54869;PMS5003;40756;-37.950;145.008;2022-10-31T09:58:07;0;0;
54869;PMS5003;40756;-37.950;145.008;2022-10-31T10:00:42;1;1;
54869;PMS5003;40756;-37.950;145.008;2022-10-31T10:03:25;0;0;
54869;PMS5003;40756;-37.950;145.008;2022-10-31T10:06:01;1;0;
54869;PMS5003;40756;-37.950;145.008;2022-10-31T10:08:36;1;1;
54869;PMS5003;40756;-37.950;145.008;2022-10-31T10:11:13;1;1;
54869;PMS5003;40756;-37.950;145.008;2022-10-31T10:13:57;2;2;
54869;PMS5003;40756;-37.950;145.008;2022-10-31T10:16:42;1;1;
54869;PMS5003;40756;-37.950;145.008;2022-10-31T10:19:27;1;1;
54869;PMS5003;40756;-37.950;145.008;2022-10-31T10:22:09;1;1;
54869;PMS5003;40756;-37.950;145.008;2022-10-31T10:24:52;2;2;
54869;PMS5003;40756;-37.950;145.008;2022-10-31T10:27:36;3;3;
54869;PMS5003;40756;-37.950;145.008;2022-10-31T10:30:15;2;2;
54869;PMS5003;40756;-37.950;145.008;2022-10-31T10:32:48;3;3;
54869;PMS5003;40756;-37.950;145.008;2022-10-31T10:35:21;1;1;
54869;PMS5003;40756;-37.950;145.008;2022-10-31T10:37:54;4;3;
54869;PMS5003;40756;-37.950;145.008;2022-10-31T10:40:29;10;10;
54869;PMS5003;40756;-37.950;145.008;2022-10-31T10:43:01;9;9;
54869;PMS5003;40756;-37.950;145.008;2022-10-31T10:45:48;7;7;
54869;PMS5003;40756;-37.950;145.008;2022-10-31T10:48:25;8;7;
54869;PMS5003;40756;-37.950;145.008;2022-10-31T10:51:04;7;7;
54869;PMS5003;40756;-37.950;145.008;2022-10-31T10:53:42;8;7;
54869;PMS5003;40756;-37.950;145.008;2022-10-31T10:56:25;5;5;
54869;PMS5003;40756;-37.950;145.008;2022-10-31T10:59:09;6;6;
54869;PMS5003;40756;-37.950;145.008;2022-10-31T11:01:44;6;6;
54869;PMS5003;40756;-37.950;145.008;2022-10-31T11:04:23;8;8;
54869;PMS5003;40756;-37.950;145.008;2022-10-31T11:07:00;4;4;
54869;PMS5003;40756;-37.950;145.008;2022-10-31T11:09:32;6;6;
54869;PMS5003;40756;-37.950;145.008;2022-10-31T11:12:06;6;5;
54869;PMS5003;40756;-37.950;145.008;2022-10-31T11:14:47;3;3;
54869;PMS5003;40756;-37.950;145.008;2022-10-31T11:17:25;4;3;
54869;PMS5003;40756;-37.950;145.008;2022-10-31T11:20:05;1;1;
54869;PMS5003;40756;-37.950;145.008;2022-10-31T11:22:55;3;3;
54869;PMS5003;40756;-37.950;145.008;2022-10-31T11:25:30;1;1;
54869;PMS5003;40756;-37.950;145.008;2022-10-31T11:28:00;0;0;
54869;PMS5003;40756;-37.950;145.008;2022-10-31T11:30:35;1;1;
54869;PMS5003;40756;-37.950;145.008;2022-10-31T11:33:13;1;1;
54869;PMS5003;40756;-37.950;145.008;2022-10-31T11:35:48;0;0;
54869;PMS5003;40756;-37.950;145.008;2022-10-31T11:38:18;1;1;
54869;PMS5003;40756;-37.950;145.008;2022-10-31T11:40:58;0;0;
54869;PMS5003;40756;-37.950;145.008;2022-10-31T11:43:33;0;0;
54869;PMS5003;40756;-37.950;145.008;2022-10-31T11:46:09;0;0;
54869;PMS5003;40756;-37.950;145.008;2022-10-31T11:48:47;0;0;
54869;PMS5003;40756;-37.950;145.008;2022-10-31T11:51:21;1;1;
54869;PMS5003;40756;-37.950;145.008;2022-10-31T11:53:53;1;0;
54869;PMS5003;40756;-37.950;145.008;2022-10-31T11:56:25;0;0;
54869;PMS5003;40756;-37.950;145.008;2022-10-31T11:59:05;0;0;
54869;PMS5003;40756;-37.950;145.008;2022-10-31T12:01:47;0;0;
54869;PMS5003;40756;-37.950;145.008;2022-10-31T12:04:18;1;1;
54869;PMS5003;40756;-37.950;145.008;2022-10-31T12:06:58;0;0;
54869;PMS5003;40756;-37.950;145.008;2022-10-31T12:09:28;1;1;
54869;PMS5003;40756;-37.950;145.008;2022-10-31T12:12:05;0;0;
54869;PMS5003;40756;-37.950;145.008;2022-10-31T12:14:51;1;0;
54869;PMS5003;40756;-37.950;145.008;2022-10-31T12:17:28;3;3;
54869;PMS5003;40756;-37.950;145.008;2022-10-31T12:20:06;2;2;
54869;PMS5003;40756;-37.950;145.008;2022-10-31T12:22:50;2;2;
54869;PMS5003;40756;-37.950;145.008;2022-10-31T12:25:30;1;1;
54869;PMS5003;40756;-37.950;145.008;2022-10-31T12:28:19;7;6;
54869;PMS5003;40756;-37.950;145.008;2022-10-31T12:31:10;6;6;
54869;PMS5003;40756;-37.950;145.008;2022-10-31T12:33:55;0;0;
54869;PMS5003;40756;-37.950;145.008;2022-10-31T12:36:42;0;0;
54869;PMS5003;40756;-37.950;145.008;2022-10-31T12:39:27;0;0;
54869;PMS5003;40756;-37.950;145.008;2022-10-31T12:42:07;0;0;
54869;PMS5003;40756;-37.950;145.008;2022-10-31T12:45:10;0;0;
54869;PMS5003;40756;-37.950;145.008;2022-10-31T12:47:59;1;0;
54869;PMS5003;40756;-37.950;145.008;2022-10-31T12:50:45;0;0;
54869;PMS5003;40756;-37.950;145.008;2022-10-31T12:53:27;3;3;
54869;PMS5003;40756;-37.950;145.008;2022-10-31T12:56:14;0;0;
54869;PMS5003;40756;-37.950;145.008;2022-10-31T12:58:56;2;1;
54869;PMS5003;40756;-37.950;145.008;2022-10-31T13:01:32;1;1;
54869;PMS5003;40756;-37.950;145.008;2022-10-31T13:04:10;2;2;
54869;PMS5003;40756;-37.950;145.008;2022-10-31T13:06:46;6;6;
54869;PMS5003;40756;-37.950;145.008;2022-10-31T13:09:20;11;11;
54869;PMS5003;40756;-37.950;145.008;2022-10-31T13:11:56;11;10;
54869;PMS5003;40756;-37.950;145.008;2022-10-31T13:14:30;6;6;
54869;PMS5003;40756;-37.950;145.008;2022-10-31T13:17:05;4;4;
54869;PMS5003;40756;-37.950;145.008;2022-10-31T13:19:50;5;4;
54869;PMS5003;40756;-37.950;145.008;2022-10-31T13:22:29;0;0;
54869;PMS5003;40756;-37.950;145.008;2022-10-31T13:25:03;1;1;
54869;PMS5003;40756;-37.950;145.008;2022-10-31T13:27:43;3;2;
54869;PMS5003;40756;-37.950;145.008;2022-10-31T13:30:16;2;2;
54869;PMS5003;40756;-37.950;145.008;2022-10-31T13:32:48;2;2;
54869;PMS5003;40756;-37.950;145.008;2022-10-31T13:35:25;0;0;
54869;PMS5003;40756;-37.950;145.008;2022-10-31T13:38:03;4;4;
54869;PMS5003;40756;-37.950;145.008;2022-10-31T13:40:44;5;5;
54869;PMS5003;40756;-37.950;145.008;2022-10-31T13:43:23;9;9;
54869;PMS5003;40756;-37.950;145.008;2022-10-31T13:45:59;7;7;
54869;PMS5003;40756;-37.950;145.008;2022-10-31T13:48:36;11;11;
54869;PMS5003;40756;-37.950;145.008;2022-10-31T13:51:08;25;25;
54869;PMS5003;40756;-37.950;145.008;2022-10-31T13:53:39;12;12;
54869;PMS5003;40756;-37.950;145.008;2022-10-31T13:56:15;19;19;
54869;PMS5003;40756;-37.950;145.008;2022-10-31T13:59:21;19;19;
54869;PMS5003;40756;-37.950;145.008;2022-10-31T14:01:54;21;21;
54869;PMS5003;40756;-37.950;145.008;2022-10-31T14:04:26;22;22;
54869;PMS5003;40756;-37.950;145.008;2022-10-31T14:07:05;27;27;
54869;PMS5003;40756;-37.950;145.008;2022-10-31T14:09:38;16;16;
54869;PMS5003;40756;-37.950;145.008;2022-10-31T14:12:22;24;24;
54869;PMS5003;40756;-37.950;145.008;2022-10-31T14:14:55;16;16;
54869;PMS5003;40756;-37.950;145.008;2022-10-31T14:17:29;15;15;
54869;PMS5003;40756;-37.950;145.008;2022-10-31T14:20:21;14;13;
54869;PMS5003;40756;-37.950;145.008;2022-10-31T14:23:24;18;18;
54869;PMS5003;40756;-37.950;145.008;2022-10-31T14:26:19;6;6;
54869;PMS5003;40756;-37.950;145.008;2022-10-31T14:29:00;0;0;
54869;PMS5003;40756;-37.950;145.008;2022-10-31T14:31:52;0;0;
54869;PMS5003;40756;-37.950;145.008;2022-10-31T14:34:25;0;0;
54869;PMS5003;40756;-37.950;145.008;2022-10-31T14:37:03;0;0;
54869;PMS5003;40756;-37.950;145.008;2022-10-31T14:39:57;1;0;
54869;PMS5003;40756;-37.950;145.008;2022-10-31T14:42:40;0;0;
54869;PMS5003;40756;-37.950;145.008;2022-10-31T14:45:25;0;0;
54869;PMS5003;40756;-37.950;145.008;2022-10-31T14:48:03;0;0;
54869;PMS5003;40756;-37.950;145.008;2022-10-31T14:50:44;0;0;
54869;PMS5003;40756;-37.950;145.008;2022-10-31T14:53:18;0;0;
54869;PMS5003;40756;-37.950;145.008;2022-10-31T14:55:52;0;0;
54869;PMS5003;40756;-37.950;145.008;2022-10-31T14:58:33;0;0;
54869;PMS5003;40756;-37.950;145.008;2022-10-31T15:01:07;0;0;
54869;PMS5003;40756;-37.950;145.008;2022-10-31T15:03:46;1;1;
54869;PMS5003;40756;-37.950;145.008;2022-10-31T15:06:17;0;0;
54869;PMS5003;40756;-37.950;145.008;2022-10-31T15:08:49;0;0;
54869;PMS5003;40756;-37.950;145.008;2022-10-31T15:11:20;1;1;
54869;PMS5003;40756;-37.950;145.008;2022-10-31T15:13:52;0;0;
54869;PMS5003;40756;-37.950;145.008;2022-10-31T15:16:24;0;0;
54869;PMS5003;40756;-37.950;145.008;2022-10-31T15:18:56;1;1;
54869;PMS5003;40756;-37.950;145.008;2022-10-31T15:21:28;0;0;
54869;PMS5003;40756;-37.950;145.008;2022-10-31T15:23:58;0;0;
54869;PMS5003;40756;-37.950;145.008;2022-10-31T15:26:31;0;0;
54869;PMS5003;40756;-37.950;145.008;2022-10-31T15:29:05;0;0;
54869;PMS5003;40756;-37.950;145.008;2022-10-31T15:31:49;1;1;
54869;PMS5003;40756;-37.950;145.008;2022-10-31T15:34:21;0;0;
54869;PMS5003;40756;-37.950;145.008;2022-10-31T15:36:56;1;1;
54869;PMS5003;40756;-37.950;145.008;2022-10-31T15:39:26;0;0;
54869;PMS5003;40756;-37.950;145.008;2022-10-31T15:41:56;0;0;
54869;PMS5003;40756;-37.950;145.008;2022-10-31T15:44:28;0;0;
54869;PMS5003;40756;-37.950;145.008;2022-10-31T15:46:59;0;0;
54869;PMS5003;40756;-37.950;145.008;2022-10-31T15:49:33;0;0;
54869;PMS5003;40756;-37.950;145.008;2022-10-31T15:52:07;0;0;
54869;PMS5003;40756;-37.950;145.008;2022-10-31T15:54:44;1;0;
54869;PMS5003;40756;-37.950;145.008;2022-10-31T15:57:16;0;0;
54869;PMS5003;40756;-37.950;145.008;2022-10-31T15:59:47;0;0;
54869;PMS5003;40756;-37.950;145.008;2022-10-31T16:03:22;0;0;
54869;PMS5003;40756;-37.950;145.008;2022-10-31T16:05:54;0;0;
54869;PMS5003;40756;-37.950;145.008;2022-10-31T16:08:26;0;0;
54869;PMS5003;40756;-37.950;145.008;2022-10-31T16:11:01;1;1;
54869;PMS5003;40756;-37.950;145.008;2022-10-31T16:13:52;1;1;
54869;PMS5003;40756;-37.950;145.008;2022-10-31T16:16:25;0;0;
54869;PMS5003;40756;-37.950;145.008;2022-10-31T16:18:56;1;0;
54869;PMS5003;40756;-37.950;145.008;2022-10-31T16:21:30;0;0;
54869;PMS5003;40756;-37.950;145.008;2022-10-31T16:24:03;0;0;
54869;PMS5003;40756;-37.950;145.008;2022-10-31T16:26:46;0;0;
54869;PMS5003;40756;-37.950;145.008;2022-10-31T16:29:26;1;1;
54869;PMS5003;40756;-37.950;145.008;2022-10-31T16:31:59;1;0;
54869;PMS5003;40756;-37.950;145.008;2022-10-31T16:34:29;1;0;
54869;PMS5003;40756;-37.950;145.008;2022-10-31T16:37:00;0;0;
54869;PMS5003;40756;-37.950;145.008;2022-10-31T16:39:30;1;1;
54869;PMS5003;40756;-37.950;145.008;2022-10-31T16:42:00;0;0;
54869;PMS5003;40756;-37.950;145.008;2022-10-31T16:44:30;1;1;
54869;PMS5003;40756;-37.950;145.008;2022-10-31T16:47:08;0;0;